Time;durP1;ratioP1;P1;durP2;ratioP2;P2;SDS_P1;SDS_P2;PMS_P1;PMS_P2;Temp;Humidity;BMP_temperature;BMP_pressure;BME280_temperature;BME280_humidity;BME280_pressure;Samples;Min_cycle;Max_cycle;Signal;HPM_P1;HPM_P2
2023/01/07 00:01:21;;;;;;;14.05;7.63;;;;;;;6.49;54.49;100226.75;5108932;28;20213;-72
2023/01/07 00:03:48;;;;;;;11.88;6.53;;;;;;;6.49;55.10;100232.31;5110450;28;20076;-72
2023/01/07 00:06:20;;;;;;;7.88;5.10;;;;;;;6.33;55.08;100229.59;5109951;28;20024;-72
2023/01/07 00:08:47;;;;;;;9.43;5.47;;;;;;;6.26;54.54;100234.66;5111732;28;20059;-72
2023/01/07 00:11:24;;;;;;;18.75;9.55;;;;;;;5.90;55.48;100230.94;5111587;28;20027;-72
2023/01/07 00:13:51;;;;;;;15.20;7.75;;;;;;;5.96;55.85;100233.69;5110914;28;20112;-72
2023/01/07 00:16:19;;;;;;;14.48;6.68;;;;;;;5.68;55.80;100231.31;5111538;28;20399;-72
2023/01/07 00:18:45;;;;;;;16.88;8.73;;;;;;;5.68;56.07;100228.53;5110866;28;20031;-73
2023/01/07 00:21:14;;;;;;;19.58;8.98;;;;;;;5.74;55.77;100234.91;5111546;28;20026;-72
2023/01/07 00:23:41;;;;;;;20.40;11.48;;;;;;;5.96;55.91;100240.06;5111515;28;20020;-73
2023/01/07 00:26:10;;;;;;;16.27;7.85;;;;;;;6.04;54.88;100245.06;5109650;28;20460;-71
2023/01/07 00:28:38;;;;;;;11.25;7.22;;;;;;;6.06;55.36;100246.72;5126211;28;20023;-72
2023/01/07 00:31:06;;;;;;;22.77;9.50;;;;;;;5.97;54.54;100238.09;5109626;28;20027;-73
2023/01/07 00:33:34;;;;;;;10.32;6.35;;;;;;;5.81;55.54;100234.59;5110258;28;20039;-73
2023/01/07 00:36:01;;;;;;;10.63;5.22;;;;;;;5.97;55.58;100236.19;5114806;28;20035;-73
2023/01/07 00:38:27;;;;;;;7.85;4.75;;;;;;;6.13;55.34;100241.69;5112885;28;20110;-72
2023/01/07 00:40:53;;;;;;;8.05;5.35;;;;;;;6.17;55.47;100251.94;5115547;28;20030;-72
2023/01/07 00:43:18;;;;;;;7.50;4.95;;;;;;;6.23;54.92;100249.97;5112712;28;20509;-72
2023/01/07 00:45:44;;;;;;;18.88;8.60;;;;;;;6.29;54.66;100250.75;5114130;28;20057;-72
2023/01/07 00:48:09;;;;;;;13.43;7.65;;;;;;;6.22;55.54;100251.06;5113881;28;20027;-73
2023/01/07 00:50:37;;;;;;;13.90;9.05;;;;;;;6.17;55.47;100254.72;5115418;28;20112;-73
2023/01/07 00:53:04;;;;;;;12.50;7.38;;;;;;;5.67;54.80;100246.31;5115275;28;20034;-72
2023/01/07 00:55:30;;;;;;;15.60;8.38;;;;;;;5.64;55.48;100246.84;5114392;28;20055;-72
2023/01/07 00:57:56;;;;;;;14.02;9.65;;;;;;;5.57;55.51;100246.34;5113941;28;20538;-72
2023/01/07 01:00:23;;;;;;;13.80;8.77;;;;;;;5.28;56.35;100245.03;5113800;28;20076;-73
2023/01/07 01:02:49;;;;;;;9.55;6.82;;;;;;;5.27;56.20;100250.84;5114952;28;20455;-72
2023/01/07 01:05:16;;;;;;;10.52;6.00;;;;;;;5.07;56.81;100255.31;5114545;28;20055;-72
2023/01/07 01:07:41;;;;;;;8.50;5.68;;;;;;;4.89;57.84;100253.94;5114217;28;20036;-72
2023/01/07 01:10:09;;;;;;;5.80;4.97;;;;;;;4.72;58.34;100243.97;5113752;28;20031;-72
2023/01/07 01:12:35;;;;;;;12.63;5.63;;;;;;;4.63;57.65;100245.59;5113499;28;20039;-72
2023/01/07 01:15:05;;;;;;;8.38;4.90;;;;;;;4.55;57.30;100240.63;5113656;28;20027;-72
2023/01/07 01:17:32;;;;;;;;;;;;;;;4.61;56.77;100242.28;5114696;28;20029;-72
2023/01/07 01:19:57;;;;;;;6.72;4.10;;;;;;;4.77;55.31;100252.28;5114722;28;19916;-72
2023/01/07 01:22:23;;;;;;;7.10;4.25;;;;;;;4.79;55.16;100243.69;5113296;28;20069;-72
2023/01/07 01:24:49;;;;;;;6.43;4.47;;;;;;;5.01;55.08;100248.09;5114949;28;20027;-72
2023/01/07 01:27:15;;;;;;;7.75;5.60;;;;;;;5.15;55.15;100254.75;5113656;28;20035;-72
2023/01/07 01:29:41;;;;;;;8.02;4.65;;;;;;;4.94;54.81;100247.53;5112742;28;20080;-72
2023/01/07 01:32:06;;;;;;;7.38;4.53;;;;;;;4.86;54.68;100249.78;5111274;28;20469;-72
2023/01/07 01:34:31;;;;;;;5.57;4.03;;;;;;;4.86;55.37;100243.41;5113987;28;20081;-72
2023/01/07 01:36:57;;;;;;;5.10;4.00;;;;;;;4.96;55.05;100234.25;5112909;28;20083;-72
2023/01/07 01:39:22;;;;;;;7.80;4.07;;;;;;;4.97;55.11;100239.50;5112982;28;20105;-72
2023/01/07 01:41:48;;;;;;;5.35;3.88;;;;;;;4.97;55.47;100238.69;5111883;28;20028;-72
2023/01/07 01:44:36;;;;;;;9.57;4.72;;;;;;;4.99;55.43;100230.94;5112944;28;20062;-72
2023/01/07 01:47:06;;;;;;;4.63;3.50;;;;;;;5.03;54.68;100243.09;5111590;28;20451;-72
2023/01/07 01:49:35;;;;;;;8.27;4.53;;;;;;;4.80;55.62;100236.22;5111753;28;20020;-72
2023/01/07 01:52:28;;;;;;;4.93;3.58;;;;;;;4.76;55.54;100238.69;5113621;28;20028;-72
2023/01/07 01:54:57;;;;;;;4.90;3.25;;;;;;;4.81;55.15;100244.22;5113079;28;20065;-72
2023/01/07 01:57:24;;;;;;;4.50;3.45;;;;;;;4.71;55.24;100238.72;5112716;28;20051;-71
2023/01/07 01:59:51;;;;;;;5.97;4.55;;;;;;;4.59;54.84;100234.28;5112565;28;20019;-72
2023/01/07 02:02:24;;;;;;;6.18;3.35;;;;;;;4.74;54.46;100235.38;5109514;28;20068;-72
2023/01/07 02:04:51;;;;;;;5.05;3.40;;;;;;;4.89;54.10;100238.13;5110984;28;20028;-71
2023/01/07 02:07:17;;;;;;;4.40;3.47;;;;;;;4.92;54.06;100242.31;5111871;28;20553;-72
2023/01/07 02:09:45;;;;;;;4.75;3.45;;;;;;;4.99;53.93;100242.00;5113775;28;20027;-72
2023/01/07 02:12:28;;;;;;;6.85;3.38;;;;;;;5.10;53.89;100232.56;5113739;28;20499;-72
2023/01/07 02:15:43;;;;;;;4.35;3.15;;;;;;;5.13;53.38;100243.09;5113065;28;20031;-72
2023/01/07 02:18:45;;;;;;;6.05;3.42;;;;;;;5.17;54.03;100244.19;5060139;28;20122;-72
2023/01/07 02:21:25;;;;;;;3.30;3.00;;;;;;;5.11;53.50;100247.25;5113621;28;20502;-72
2023/01/07 02:24:04;;;;;;;3.72;3.20;;;;;;;4.73;55.05;100250.34;5112119;28;20127;-72
2023/01/07 02:26:41;;;;;;;8.55;3.35;;;;;;;4.58;55.71;100251.16;5105311;28;20020;-72
2023/01/07 02:29:16;;;;;;;7.85;3.13;;;;;;;4.53;55.17;100251.97;5092952;28;20510;-72
2023/01/07 02:32:03;;;;;;;6.32;4.32;;;;;;;4.58;55.67;100254.75;5110258;28;20081;-71
2023/01/07 02:34:40;;;;;;;9.77;5.70;;;;;;;4.62;56.09;100253.09;5096155;28;20111;-72
2023/01/07 02:37:16;;;;;;;10.93;5.50;;;;;;;4.44;57.05;100248.09;5111773;28;20035;-72
2023/01/07 02:39:47;;;;;;;10.77;5.80;;;;;;;4.43;57.01;100247.28;5112463;28;20105;-72
2023/01/07 02:42:35;;;;;;;9.70;5.40;;;;;;;4.30;57.78;100243.06;5111435;28;20158;-71
2023/01/07 02:45:08;;;;;;;9.63;6.57;;;;;;;4.10;58.47;100243.88;5111751;28;20130;-71
2023/01/07 02:47:42;;;;;;;9.95;6.70;;;;;;;4.27;59.07;100243.63;5109261;28;20061;-72
2023/01/07 02:50:08;;;;;;;11.75;7.32;;;;;;;4.29;58.57;100244.19;5112150;28;20049;-71
2023/01/07 02:52:35;;;;;;;12.07;7.05;;;;;;;4.03;59.98;100244.13;5111729;28;20047;-72
2023/01/07 02:55:11;;;;;;;12.00;8.13;;;;;;;4.14;59.37;100239.44;5112077;28;20497;-71
2023/01/07 02:57:54;;;;;;;13.10;7.55;;;;;;;4.45;58.82;100247.81;5112578;28;20019;-71
2023/01/07 03:00:43;;;;;;;16.45;6.68;;;;;;;4.60;58.69;100247.00;5112650;28;20028;-72
2023/01/07 03:03:30;;;;;;;12.20;7.22;;;;;;;4.66;58.54;100241.47;5100016;28;20044;-72
2023/01/07 03:06:04;;;;;;;11.65;7.20;;;;;;;4.57;58.06;100242.00;5112210;28;20038;-71
2023/01/07 03:08:39;;;;;;;14.98;7.57;;;;;;;4.57;58.84;100239.22;5109972;28;20031;-71
2023/01/07 03:11:08;;;;;;;10.60;6.78;;;;;;;4.57;58.44;100241.19;5112642;28;20554;-72
2023/01/07 03:13:39;;;;;;;14.77;7.65;;;;;;;4.54;58.35;100247.28;5112459;28;20487;-72
2023/01/07 03:16:14;;;;;;;9.77;5.55;;;;;;;4.31;58.31;100252.22;5112001;28;20023;-72
2023/01/07 03:18:47;;;;;;;9.82;5.10;;;;;;;4.55;58.77;100244.22;5110994;28;20420;-71
2023/01/07 03:21:16;;;;;;;10.23;6.85;;;;;;;4.67;58.79;100248.66;5111135;28;20019;-72
2023/01/07 03:23:48;;;;;;;10.35;6.00;;;;;;;4.32;59.06;100246.41;5106850;28;20035;-72
2023/01/07 03:26:16;;;;;;;12.27;7.95;;;;;;;4.53;60.13;100248.41;5091969;28;20062;-71
2023/01/07 03:28:42;;;;;;;14.75;9.63;;;;;;;4.54;59.73;100247.28;5111038;28;20023;-71
2023/01/07 03:31:14;;;;;;;15.30;9.43;;;;;;;4.44;61.01;100246.16;5112300;28;20051;-71
2023/01/07 03:33:52;;;;;;;15.90;9.18;;;;;;;4.34;61.09;100252.53;5112210;28;20541;-71
2023/01/07 03:36:24;;;;;;;12.38;8.73;;;;;;;4.25;61.66;100256.94;5110995;28;20098;-71
2023/01/07 03:38:51;;;;;;;13.25;8.30;;;;;;;3.85;60.80;100251.00;5118516;27;20051;-70
2023/01/07 03:44:01;;;;;;;14.70;8.27;;;;;;;3.98;61.82;100266.28;5110909;28;20410;-71
2023/01/07 03:46:27;;;;;;;11.10;7.10;;;;;;;3.88;62.67;100266.22;5110577;28;20023;-71
2023/01/07 03:48:52;;;;;;;11.35;7.22;;;;;;;3.93;62.48;100266.22;5111336;28;20052;-71
2023/01/07 03:51:18;;;;;;;11.45;7.95;;;;;;;2.73;64.39;100261.06;5112282;28;20465;-72
2023/01/07 03:53:43;;;;;;;15.85;8.80;;;;;;;3.03;64.07;100259.66;5110035;28;20016;-71
2023/01/07 03:56:09;;;;;;;16.13;8.50;;;;;;;3.20;63.68;100260.31;5111436;28;20047;-71
2023/01/07 03:58:34;;;;;;;19.17;8.27;;;;;;;3.31;64.95;100250.16;5111965;28;20020;-72
2023/01/07 04:00:59;;;;;;;12.27;8.13;;;;;;;3.34;63.54;100260.69;5110315;28;20031;-72
2023/01/07 04:03:25;;;;;;;14.55;9.05;;;;;;;3.47;63.37;100258.56;5108593;28;20027;-71
2023/01/07 04:05:50;;;;;;;10.80;7.35;;;;;;;3.60;63.43;100266.38;5110334;28;20019;-71
2023/01/07 04:08:16;;;;;;;13.82;9.10;;;;;;;3.77;62.44;100260.66;5109661;28;20027;-72
2023/01/07 04:10:41;;;;;;;13.68;8.93;;;;;;;3.77;62.59;100255.13;5110020;28;20016;-72
2023/01/07 04:13:07;;;;;;;17.77;9.40;;;;;;;3.84;63.12;100256.78;5111710;28;20019;-72
2023/01/07 04:15:32;;;;;;;14.27;7.80;;;;;;;3.84;61.49;100263.16;5111544;28;20022;-72
2023/01/07 04:17:58;;;;;;;18.63;8.90;;;;;;;3.84;61.47;100262.31;5110921;28;20027;-72
2023/01/07 04:20:23;;;;;;;22.55;10.30;;;;;;;3.45;61.16;100269.88;5110249;28;20027;-71
2023/01/07 04:22:48;;;;;;;23.83;11.88;;;;;;;3.29;61.79;100281.97;5111022;28;20493;-72
2023/01/07 04:25:14;;;;;;;24.15;11.80;;;;;;;3.51;62.11;100277.13;5110151;28;20024;-72
2023/01/07 04:27:40;;;;;;;27.30;14.43;;;;;;;3.23;62.46;100276.38;5111556;28;20023;-72
2023/01/07 04:30:07;;;;;;;37.42;22.17;;;;;;;3.38;62.41;100280.38;5109532;28;20031;-71
2023/01/07 04:32:32;;;;;;;65.80;34.00;;;;;;;3.27;62.77;100281.41;5111858;28;20575;-72
2023/01/07 04:34:58;;;;;;;58.20;29.27;;;;;;;3.26;62.98;100285.22;5110806;28;20031;-72
2023/01/07 04:37:23;;;;;;;43.80;23.17;;;;;;;3.44;62.30;100290.34;5108762;28;20023;-72
2023/01/07 04:39:49;;;;;;;32.38;18.65;;;;;;;3.50;62.15;100292.06;5111432;28;20020;-72
2023/01/07 04:42:14;;;;;;;33.10;19.90;;;;;;;3.44;61.73;100281.19;5110747;28;20046;-72
2023/01/07 04:44:40;;;;;;;37.75;24.35;;;;;;;3.42;63.00;100295.31;5110112;28;20027;-71
2023/01/07 04:47:05;;;;;;;40.08;21.63;;;;;;;3.46;61.89;100293.66;5109833;28;20502;-72
2023/01/07 04:49:30;;;;;;;28.38;17.58;;;;;;;3.41;62.82;100298.34;5108735;28;20016;-72
2023/01/07 04:51:56;;;;;;;23.42;15.38;;;;;;;3.41;62.06;100293.66;5109823;28;20020;-72
2023/01/07 04:54:21;;;;;;;29.85;15.52;;;;;;;3.44;62.12;100295.03;5110637;28;20020;-72
2023/01/07 04:56:47;;;;;;;26.20;14.38;;;;;;;2.17;65.42;100306.34;5109614;28;20043;-72
2023/01/07 04:59:15;;;;;;;30.10;14.63;;;;;;;2.53;66.64;100309.50;5110878;28;20032;-72
2023/01/07 05:01:41;;;;;;;26.15;15.52;;;;;;;2.78;66.70;100300.63;5109410;28;20039;-72
2023/01/07 05:04:06;;;;;;;25.98;14.45;;;;;;;2.91;65.19;100307.66;5108620;28;20408;-72
2023/01/07 05:06:32;;;;;;;25.65;14.93;;;;;;;2.95;65.94;100313.47;5103326;28;20436;-72
2023/01/07 05:08:57;;;;;;;31.48;19.60;;;;;;;2.93;65.16;100308.22;5111279;28;20123;-72
2023/01/07 05:11:23;;;;;;;37.88;19.88;;;;;;;3.14;65.04;100302.03;5109053;28;20066;-72
2023/01/07 05:13:48;;;;;;;34.40;18.45;;;;;;;3.13;64.47;100309.47;5109572;28;20387;-71
2023/01/07 05:16:14;;;;;;;37.55;16.85;;;;;;;3.19;64.55;100321.41;5105003;28;20046;-71
2023/01/07 05:18:40;;;;;;;33.15;18.58;;;;;;;2.53;65.01;100315.03;5100794;28;20167;-72
2023/01/07 05:21:05;;;;;;;34.35;17.52;;;;;;;2.81;65.39;100316.69;5109791;28;20612;-71
2023/01/07 05:23:31;;;;;;;33.17;21.83;;;;;;;2.80;64.62;100311.44;5113464;28;20023;-67
2023/01/07 05:25:56;;;;;;;56.45;25.90;;;;;;;2.92;64.93;100314.84;5112508;28;20498;-71
2023/01/07 05:28:22;;;;;;;53.42;29.65;;;;;;;2.98;64.25;100306.59;5112543;28;20027;-72
2023/01/07 05:30:47;;;;;;;61.45;31.58;;;;;;;3.00;63.88;100305.25;5112499;28;20042;-71
2023/01/07 05:33:13;;;;;;;132.25;69.50;;;;;;;3.14;64.13;100316.69;5114606;28;20024;-72
2023/01/07 05:35:38;;;;;;;245.70;124.32;;;;;;;3.23;64.34;100317.84;5111598;28;20039;-71
2023/01/07 05:38:04;;;;;;;181.82;98.57;;;;;;;3.25;63.92;100320.38;5113431;28;20093;-75
2023/01/07 05:40:29;;;;;;;231.30;102.45;;;;;;;3.29;63.12;100318.72;5113026;28;20058;-71
2023/01/07 05:42:54;;;;;;;164.95;82.30;;;;;;;3.17;62.77;100310.63;5113995;28;20027;-71
2023/01/07 05:45:20;;;;;;;115.90;63.47;;;;;;;2.89;63.44;100304.31;5105340;28;20478;-71
2023/01/07 05:47:47;;;;;;;103.38;53.97;;;;;;;3.05;63.44;100312.75;5111982;28;20502;-69
2023/01/07 05:50:12;;;;;;;138.00;71.25;;;;;;;3.01;63.65;100309.69;5114106;28;20028;-69
2023/01/07 05:52:38;;;;;;;145.38;74.72;;;;;;;2.97;63.48;100314.06;5113578;28;20516;-72
2023/01/07 05:55:04;;;;;;;119.57;60.75;;;;;;;2.93;64.13;100316.53;5111972;28;20058;-69
2023/01/07 05:57:30;;;;;;;152.52;75.28;;;;;;;2.76;64.05;100311.13;5112681;28;20038;-70
2023/01/07 05:59:56;;;;;;;146.70;74.53;;;;;;;2.76;64.23;100311.13;5113071;28;20459;-69
2023/01/07 06:02:21;;;;;;;160.73;76.75;;;;;;;2.76;64.51;100310.28;5111637;28;20054;-70
2023/01/07 06:04:46;;;;;;;130.68;66.82;;;;;;;2.74;64.39;100313.31;5108108;27;20027;-71
2023/01/07 06:07:12;;;;;;;152.98;72.60;;;;;;;2.88;64.66;100313.69;5111809;28;20521;-73
2023/01/07 06:09:37;;;;;;;136.73;68.63;;;;;;;2.83;64.51;100321.94;5105536;28;20031;-71
2023/01/07 06:12:03;;;;;;;133.60;63.75;;;;;;;2.90;64.04;100319.81;5105152;28;20032;-70
2023/01/07 06:14:28;;;;;;;85.88;43.35;;;;;;;3.09;64.23;100313.88;5109103;28;20032;-70
2023/01/07 06:16:54;;;;;;;84.18;40.13;;;;;;;3.10;63.60;100315.53;5109306;27;20039;-70
2023/01/07 06:19:21;;;;;;;51.45;27.30;;;;;;;3.15;63.20;100321.13;5106438;28;20097;-70
2023/01/07 06:21:47;;;;;;;34.83;16.45;;;;;;;3.09;62.69;100330.47;5090392;28;20027;-70
2023/01/07 06:24:13;;;;;;;52.10;30.08;;;;;;;2.77;63.69;100320.22;5102289;28;20047;-70
2023/01/07 06:26:38;;;;;;;127.03;53.55;;;;;;;2.52;64.64;100321.66;5109456;28;20537;-70
2023/01/07 06:29:04;;;;;;;189.25;75.00;;;;;;;2.64;64.72;100327.84;5102559;28;20485;-70
2023/01/07 06:31:29;;;;;;;129.32;54.33;;;;;;;3.09;65.24;100330.47;5098148;28;20039;-70
2023/01/07 06:33:55;;;;;;;98.47;42.90;;;;;;;3.17;63.34;100332.75;5109014;28;20036;-70
2023/01/07 06:36:20;;;;;;;141.55;73.45;;;;;;;3.15;63.15;100342.41;5109198;28;20034;-70
2023/01/07 06:38:46;;;;;;;123.22;65.85;;;;;;;3.15;63.12;100345.16;5099069;28;20036;-70
2023/01/07 06:41:11;;;;;;;144.70;72.50;;;;;;;3.60;63.66;100340.22;5106308;28;20035;-70
2023/01/07 06:43:37;;;;;;;86.13;46.92;;;;;;;3.87;64.22;100339.28;5109872;28;20027;-70
2023/01/07 06:46:02;;;;;;;58.45;34.03;;;;;;;4.10;63.23;100340.78;5109934;28;20114;-72
2023/01/07 06:48:28;;;;;;;67.80;35.40;;;;;;;4.24;62.79;100338.34;5110347;28;20031;-70
2023/01/07 06:50:53;;;;;;;88.10;49.33;;;;;;;4.28;62.30;100339.47;5110625;28;20031;-70
2023/01/07 06:53:19;;;;;;;85.25;40.08;;;;;;;4.46;62.36;100338.13;5107712;28;20490;-70
2023/01/07 06:55:49;;;;;;;67.18;32.63;;;;;;;4.15;62.13;100346.31;5106788;28;20043;-70
2023/01/07 06:58:15;;;;;;;37.92;21.48;;;;;;;4.12;61.34;100354.38;5108462;28;20027;-71
2023/01/07 07:00:40;;;;;;;60.08;34.05;;;;;;;3.65;62.63;100346.63;5110149;28;20024;-72
2023/01/07 07:03:06;;;;;;;45.58;20.02;;;;;;;4.08;62.49;100354.06;5109623;28;20455;-71
2023/01/07 07:05:32;;;;;;;20.98;12.38;;;;;;;4.15;62.29;100357.41;5107310;28;20047;-69
2023/01/07 07:07:59;;;;;;;20.67;11.63;;;;;;;4.62;61.70;100352.03;5105417;28;20426;-70
2023/01/07 07:10:25;;;;;;;18.35;11.70;;;;;;;4.97;61.24;100349.59;5108234;28;20028;-70
2023/01/07 07:12:50;;;;;;;14.38;9.20;;;;;;;5.12;60.16;100352.38;5106224;28;20042;-69
2023/01/07 07:15:16;;;;;;;20.30;10.30;;;;;;;5.22;58.91;100351.53;5105451;28;20030;-70
2023/01/07 07:17:41;;;;;;;19.30;11.07;;;;;;;5.46;58.18;100348.19;5107933;28;20035;-70
2023/01/07 07:20:07;;;;;;;18.20;10.07;;;;;;;4.85;59.13;100350.69;5107390;28;20493;-69
2023/01/07 07:22:33;;;;;;;19.35;9.98;;;;;;;4.83;59.64;100352.06;5108093;28;20571;-71
2023/01/07 07:24:58;;;;;;;33.55;13.75;;;;;;;4.82;59.72;100351.22;5109458;28;20481;-70
2023/01/07 07:27:24;;;;;;;31.48;10.25;;;;;;;5.11;59.19;100350.72;5109036;28;20032;-70
2023/01/07 07:29:49;;;;;;;29.85;11.65;;;;;;;5.28;58.65;100347.66;5105357;28;20486;-76
2023/01/07 07:32:15;;;;;;;22.15;10.65;;;;;;;5.32;57.67;100350.72;5101631;28;20391;-72
2023/01/07 07:34:40;;;;;;;19.60;9.63;;;;;;;4.98;59.32;100359.59;5103946;28;20030;-72
2023/01/07 07:37:06;;;;;;;22.17;10.60;;;;;;;5.25;58.86;100364.03;5099867;28;20031;-71
2023/01/07 07:39:32;;;;;;;21.35;10.32;;;;;;;4.98;59.06;100362.34;5101773;28;20027;-70
2023/01/07 07:42:01;;;;;;;27.08;10.15;;;;;;;4.97;60.04;100363.47;5102443;28;20031;-70
2023/01/07 07:44:26;;;;;;;23.10;11.40;;;;;;;5.15;59.35;100360.13;5095313;28;20019;-70
2023/01/07 07:46:52;;;;;;;21.65;11.43;;;;;;;5.30;59.29;100367.63;5108003;28;20429;-68
2023/01/07 07:49:17;;;;;;;39.95;11.40;;;;;;;5.32;58.98;100359.06;5104068;28;20422;-72
2023/01/07 07:51:43;;;;;;;19.15;8.48;;;;;;;5.35;58.36;100361.25;5104874;28;20028;-70
2023/01/07 07:54:08;;;;;;;19.35;9.90;;;;;;;5.59;58.17;100366.22;5106161;28;20023;-73
2023/01/07 07:56:34;;;;;;;16.50;9.73;;;;;;;5.59;57.53;100363.47;5100904;28;20043;-74
2023/01/07 07:58:59;;;;;;;24.48;12.32;;;;;;;5.84;57.11;100356.19;5105466;28;20031;-71
2023/01/07 08:01:24;;;;;;;28.33;8.93;;;;;;;5.56;57.08;100358.47;5105878;28;20058;-69
2023/01/07 08:03:50;;;;;;;17.98;10.05;;;;;;;5.63;56.61;100356.22;5107726;28;20027;-68
2023/01/07 08:06:15;;;;;;;20.55;10.68;;;;;;;5.85;56.60;100353.16;5108207;28;20024;-75
2023/01/07 08:08:41;;;;;;;21.02;11.18;;;;;;;5.92;57.25;100347.28;5105830;28;20020;-73
2023/01/07 08:11:06;;;;;;;34.55;11.52;;;;;;;5.94;56.67;100345.06;5105789;28;20452;-73
2023/01/07 08:13:32;;;;;;;24.65;11.57;;;;;;;5.96;56.10;100353.94;5105210;28;20027;-74
2023/01/07 08:15:58;;;;;;;32.47;15.00;;;;;;;6.18;55.89;100338.91;5107716;28;20027;-72
2023/01/07 08:18:24;;;;;;;37.20;20.55;;;;;;;6.35;55.47;100344.09;5107465;28;20027;-74
2023/01/07 08:20:49;;;;;;;53.80;28.02;;;;;;;6.38;55.38;100348.25;5097283;28;20111;-75
2023/01/07 08:23:15;;;;;;;43.15;25.77;;;;;;;6.66;54.56;100345.88;5094484;28;20118;-72
2023/01/07 08:25:41;;;;;;;43.97;23.77;;;;;;;7.03;53.56;100352.88;5091461;28;20366;-74
2023/01/07 08:28:09;;;;;;;30.48;18.08;;;;;;;7.30;53.61;100354.31;5094261;28;20497;-74
2023/01/07 08:30:34;;;;;;;18.88;11.05;;;;;;;7.24;52.55;100341.56;5096268;28;20030;-74
2023/01/07 08:33:04;;;;;;;17.40;10.65;;;;;;;7.25;52.77;100352.41;5101556;28;20032;-74
2023/01/07 08:35:33;;;;;;;19.50;12.07;;;;;;;7.20;53.22;100359.97;5092757;28;20089;-74
2023/01/07 08:38:07;;;;;;;16.23;10.35;;;;;;;7.61;52.36;100342.91;5092870;28;20028;-74
2023/01/07 08:40:34;;;;;;;23.92;14.63;;;;;;;8.12;51.26;100347.06;5097405;28;20028;-74
2023/01/07 08:43:01;;;;;;;28.90;15.55;;;;;;;8.41;50.92;100340.59;5101644;28;20127;-74
2023/01/07 08:45:27;;;;;;;27.70;11.65;;;;;;;8.51;49.80;100338.84;5093207;28;20088;-74
2023/01/07 08:47:56;;;;;;;91.50;41.13;;;;;;;8.95;49.32;100334.00;5095372;28;20111;-74
2023/01/07 08:50:25;;;;;;;26.25;14.07;;;;;;;8.78;49.21;100328.97;5095417;28;20034;-74
2023/01/07 08:52:51;;;;;;;14.88;10.00;;;;;;;8.75;49.27;100326.75;5098660;28;20028;-74
2023/01/07 08:55:16;;;;;;;11.90;7.60;;;;;;;8.89;49.23;100312.88;5098419;28;20529;-73
2023/01/07 08:57:42;;;;;;;31.88;15.90;;;;;;;8.87;49.00;100312.38;5110780;28;20102;-73
2023/01/07 09:00:08;;;;;;;15.15;10.77;;;;;;;9.17;49.16;100318.56;5106404;28;20020;-74
2023/01/07 09:02:33;;;;;;;15.52;9.98;;;;;;;9.12;48.26;100311.13;5099590;28;20046;-72
2023/01/07 09:04:59;;;;;;;20.35;11.68;;;;;;;9.17;49.21;100305.44;5106827;28;20445;-76
2023/01/07 09:07:24;;;;;;;16.45;10.18;;;;;;;8.53;50.77;100303.09;5105197;28;20065;-73
2023/01/07 09:09:50;;;;;;;17.45;8.77;;;;;;;8.37;51.15;100305.25;5099247;28;20015;-76
2023/01/07 09:12:15;;;;;;;27.90;12.48;;;;;;;8.62;51.38;100294.88;5102794;28;20027;-73
2023/01/07 09:14:40;;;;;;;40.15;15.85;;;;;;;8.75;51.21;100288.53;5101113;28;20402;-75
2023/01/07 09:17:06;;;;;;;114.53;47.03;;;;;;;9.01;50.83;100293.72;5102931;28;20015;-76
2023/01/07 09:19:31;;;;;;;152.80;58.28;;;;;;;9.12;51.74;100280.44;5097335;28;20070;-76
2023/01/07 09:21:57;;;;;;;42.08;16.67;;;;;;;9.17;52.58;100273.91;5101489;28;20050;-76
2023/01/07 09:24:22;;;;;;;15.73;6.72;;;;;;;9.51;52.58;100275.53;5098737;28;20020;-74
2023/01/07 09:26:48;;;;;;;290.02;95.82;;;;;;;9.31;53.33;100265.56;5129468;27;20059;-77
2023/01/07 09:29:14;;;;;;;12.02;6.50;;;;;;;9.68;52.28;100266.56;5105657;28;20013;-77
2023/01/07 09:31:39;;;;;;;70.95;27.45;;;;;;;9.53;52.98;100262.09;5097274;28;20020;-75
2023/01/07 09:34:05;;;;;;;286.83;117.53;;;;;;;9.37;52.57;100256.00;5114995;28;20035;-73
2023/01/07 09:36:30;;;;;;;157.20;61.20;;;;;;;9.59;52.36;100244.09;5113444;28;20024;-76
2023/01/07 09:38:55;;;;;;;61.00;26.23;;;;;;;9.81;52.57;100246.16;5114597;28;20020;-72
2023/01/07 09:41:57;;;;;;;104.82;39.85;;;;;;;10.01;52.11;100244.09;5112404;28;20376;-69
2023/01/07 09:44:44;;;;;;;969.72;482.48;;;;;;;10.08;52.11;100230.53;5101144;28;20023;-72
2023/01/07 09:47:13;;;;;;;972.03;514.28;;;;;;;10.46;51.00;100235.00;5100289;28;20028;-71
2023/01/07 09:49:40;;;;;;;1995.87;832.57;;;;;;;10.44;52.99;100225.28;5110966;28;20023;-73
2023/01/07 09:52:21;;;;;;;1999.90;860.08;;;;;;;11.03;52.55;100224.41;5111560;28;20020;-72
2023/01/07 09:54:51;;;;;;;1608.80;680.55;;;;;;;11.05;49.48;100214.53;5092366;28;20092;-68
2023/01/07 09:57:17;;;;;;;1999.90;999.90;;;;;;;11.26;49.89;100214.00;5113933;28;20047;-69
2023/01/07 09:59:43;;;;;;;980.45;479.27;;;;;;;11.51;48.55;100215.25;5111242;28;20036;-71
2023/01/07 10:02:44;;;;;;;1684.10;696.97;;;;;;;11.26;48.82;100200.00;5111376;28;20050;-69
2023/01/07 10:05:34;;;;;;;1487.95;678.72;;;;;;;11.37;48.76;100208.94;5088789;28;20031;-68
2023/01/07 10:08:07;;;;;;;1999.90;999.90;;;;;;;11.46;52.49;100195.81;5111335;28;20035;-69
2023/01/07 10:11:01;;;;;;;1472.38;610.83;;;;;;;11.94;48.42;100185.75;5101564;28;20077;-73
2023/01/07 10:13:38;;;;;;;462.02;218.52;;;;;;;10.66;48.91;100188.13;5076773;28;20119;-73
2023/01/07 10:16:04;;;;;;;871.47;514.13;;;;;;;11.14;49.65;100182.97;5102450;28;20028;-74
2023/01/07 10:19:06;;;;;;;80.28;33.10;;;;;;;11.30;48.57;100184.19;5104775;28;20034;-72
2023/01/07 10:22:15;;;;;;;14.52;8.07;;;;;;;11.28;48.86;100180.91;5121746;27;20029;-71
2023/01/07 10:24:47;;;;;;;14.50;7.03;;;;;;;11.61;48.13;100179.69;5039075;28;20036;-74
2023/01/07 10:27:15;;;;;;;15.52;8.60;;;;;;;11.93;48.18;100163.63;5108830;28;20098;-72
2023/01/07 10:29:47;;;;;;;16.92;7.75;;;;;;;12.01;48.38;100164.78;5103923;28;20054;-71
2023/01/07 10:32:15;;;;;;;12.60;6.70;;;;;;;11.01;49.28;100162.31;5098998;28;20441;-71
2023/01/07 10:34:50;;;;;;;19.02;7.25;;;;;;;11.67;48.52;100158.81;5093566;28;20077;-72
2023/01/07 10:37:26;;;;;;;10.63;7.35;;;;;;;11.68;48.59;100151.19;5094581;28;20032;-69
2023/01/07 10:40:25;;;;;;;74.95;31.05;;;;;;;11.28;49.19;100144.50;5105504;28;20379;-68
2023/01/07 10:43:23;;;;;;;26.20;11.40;;;;;;;11.40;47.74;100137.47;5098889;28;20032;-68
2023/01/07 10:45:55;;;;;;;16.00;7.78;;;;;;;11.51;48.56;100136.81;5070482;28;20486;-70
2023/01/07 10:49:06;;;;;;;82.43;27.92;;;;;;;11.92;47.89;100131.97;5095114;28;20450;-70
2023/01/07 10:52:08;;;;;;;53.00;20.83;;;;;;;12.33;46.81;100127.06;5105714;28;20077;-69
2023/01/07 10:54:42;;;;;;;15.85;6.97;;;;;;;12.64;45.63;100113.97;5096171;28;20042;-71
2023/01/07 10:57:14;;;;;;;11.75;5.82;;;;;;;12.80;45.05;100110.66;5108439;28;20043;-71
2023/01/07 10:59:50;;;;;;;8.30;5.10;;;;;;;12.92;44.62;100113.59;5092943;28;20024;-72
2023/01/07 11:02:19;;;;;;;8.23;5.28;;;;;;;12.76;44.07;100102.88;5103244;28;20452;-71
2023/01/07 11:04:45;;;;;;;10.45;6.30;;;;;;;12.96;45.09;100092.09;5097418;28;20391;-73
2023/01/07 11:07:23;;;;;;;23.30;13.13;;;;;;;12.55;45.73;100099.13;5102556;28;20094;-71
2023/01/07 11:09:51;;;;;;;11.23;8.18;;;;;;;12.55;46.04;100096.31;5091449;28;20066;-72
2023/01/07 11:12:40;;;;;;;26.90;10.48;;;;;;;12.31;46.65;100095.72;5104183;28;20016;-72
2023/01/07 11:15:26;;;;;;;11.10;5.82;;;;;;;12.21;47.03;100085.66;5092904;28;20024;-70
2023/01/07 11:17:54;;;;;;;13.57;5.25;;;;;;;12.72;45.74;100087.03;5105807;28;20498;-73
2023/01/07 11:20:47;;;;;;;9.93;6.22;;;;;;;13.05;45.34;100076.03;5096049;28;20015;-71
2023/01/07 11:23:28;;;;;;;9.25;5.45;;;;;;;13.24;44.64;100065.53;5098950;28;20152;-73
2023/01/07 11:26:08;;;;;;;33.40;6.60;;;;;;;12.91;45.05;100061.38;5104254;28;20077;-72
2023/01/07 11:28:35;;;;;;;8.82;4.25;;;;;;;12.94;44.93;100054.28;5101412;28;20012;-72
2023/01/07 11:31:01;;;;;;;14.95;6.05;;;;;;;13.37;44.31;100055.22;5095243;28;20081;-73
2023/01/07 11:33:38;;;;;;;45.10;17.33;;;;;;;13.43;44.88;100051.06;5095646;28;20020;-73